Time;durP1;ratioP1;P1;durP2;ratioP2;P2;SDS_P1;SDS_P2;PMS_P1;PMS_P2;Temp;Humidity;BMP_temperature;BMP_pressure;BME280_temperature;BME280_humidity;BME280_pressure;Samples;Min_cycle;Max_cycle;Signal;HPM_P1;HPM_P2
2022/12/28 01:39:03;;;;;;;6.25;2.20;;;5.60;99.90;;;;;;4806727;29;20107;-91
2022/12/28 02:58:21;;;;;;;;;;;;;;;;;;;;;
2022/12/28 03:13:06;;;;;;;;;;;;;;;;;;;;;
2022/12/28 03:53:52;;;;;;;;;;;;;;;;;;;;;
2022/12/28 03:57:20;;;;;;;;;;;;;;;;;;;;;
2022/12/28 04:00:26;;;;;;;;;;;;;;;;;;;;;
2022/12/28 04:03:44;;;;;;;7.03;3.15;;;6.30;99.90;;;;;;6133435;23;20029;-89
2022/12/28 04:06:57;;;;;;;5.10;2.97;;;6.40;99.90;;;;;;6133368;23;20032;-89
2022/12/28 04:10:18;;;;;;;;;;;;;;;;;;;;;
2022/12/28 04:13:44;;;;;;;;;;;;;;;;;;;;;
2022/12/28 04:16:53;;;;;;;4.22;2.58;;;6.40;99.90;;;;;;6106227;23;20022;-91
2022/12/28 04:20:10;;;;;;;;;;;;;;;;;;;;;
2022/12/28 04:23:34;;;;;;;;;;;;;;;;;;;;;
2022/12/28 04:27:04;;;;;;;;;;;;;;;;;;;;;
2022/12/28 04:30:28;;;;;;;;;;;;;;;;;;;;;
2022/12/28 04:33:27;;;;;;;;;;;;;;;;;;;;;
2022/12/28 04:36:46;;;;;;;;;;;;;;;;;;;;;
2022/12/28 04:40:04;;;;;;;;;;;;;;;;;;;;;
2022/12/28 04:43:32;;;;;;;;;;;;;;;;;;;;;
2022/12/28 04:46:52;;;;;;;3.50;2.40;;;7.20;99.90;;;;;;6308959;22;20031;-90
2022/12/28 04:50:02;;;;;;;;;;;;;;;;;;;;;
2022/12/28 04:53:10;;;;;;;3.70;2.22;;;6.70;99.90;;;;;;6212921;23;20063;-89
2022/12/28 04:56:30;;;;;;;3.33;1.67;;;7.30;99.90;;;;;;6215226;23;20025;-90
2022/12/28 04:59:46;;;;;;;;;;;;;;;;;;;;;
2022/12/28 05:03:04;;;;;;;;;;;;;;;;;;;;;
2022/12/28 05:06:28;;;;;;;;;;;;;;;;;;;;;
2022/12/28 05:09:54;;;;;;;3.30;2.17;;;6.90;99.90;;;;;;6154358;23;20017;-90
2022/12/28 05:13:05;;;;;;;3.47;2.13;;;6.90;99.90;;;;;;6154671;23;20058;-89
2022/12/28 05:16:08;;;;;;;3.47;2.63;;;6.70;99.90;;;;;;6130365;23;20031;-90
2022/12/28 05:19:08;;;;;;;3.78;2.35;;;6.90;99.90;;;;;;6154698;23;20025;-89
2022/12/28 05:22:22;;;;;;;;;;;;;;;;;;;;;
2022/12/28 05:25:48;;;;;;;;;;;;;;;;;;;;;
2022/12/28 05:29:06;;;;;;;;;;;;;;;;;;;;;
2022/12/28 05:32:24;;;;;;;3.78;2.65;;;7.10;99.90;;;;;;6154474;23;20076;-88
2022/12/28 05:35:38;;;;;;;5.03;2.60;;;7.00;99.90;;;;;;6154466;23;20115;-89
2022/12/28 05:39:08;;;;;;;;;;;;;;;;;;;;;
2022/12/28 05:42:42;;;;;;;;;;;;;;;;;;;;;
2022/12/28 05:50:20;;;;;;;;;;;;;;;;;;;;;
2022/12/28 05:57:34;;;;;;;6.43;4.55;;;7.20;99.90;;;;;;6071238;23;20034;-89
2022/12/28 06:00:59;;;;;;;;;;;;;;;;;;;;;
2022/12/28 06:04:24;;;;;;;;;;;;;;;;;;;;;
2022/12/28 06:08:03;;;;;;;6.43;4.50;;;7.40;99.90;;;;;;6095761;23;20025;-90
2022/12/28 06:11:54;;;;;;;;;;;;;;;;;;;;;
2022/12/28 06:23:04;;;;;;;;;;;;;;;;;;;;;
2022/12/28 06:26:38;;;;;;;;;;;;;;;;;;;;;
2022/12/28 06:30:02;;;;;;;8.02;5.70;;;7.60;99.90;;;;;;6009442;23;20513;-88
2022/12/28 06:33:15;;;;;;;;;;;;;;;;;;;;;
2022/12/28 06:36:49;;;;;;;7.30;5.38;;;7.70;99.90;;;;;;6009190;23;20031;-90
2022/12/28 06:39:56;;;;;;;9.77;5.40;;;8.20;99.90;;;;;;5900456;24;20105;-89
2022/12/28 06:42:56;;;;;;;6.55;4.70;;;7.80;99.90;;;;;;5925637;24;20107;-90
2022/12/28 06:46:42;;;;;;;8.88;4.55;;;8.20;99.90;;;;;;5953010;24;20039;-90
2022/12/28 06:54:03;;;;;;;;;;;;;;;;;;;;;
2022/12/28 07:00:56;;;;;;;;;;;;;;;;;;;;;
2022/12/28 07:03:52;;;;;;;9.05;5.10;;;7.60;99.90;;;;;;5934599;24;20092;-87
2022/12/28 07:07:12;;;;;;;;;;;;;;;;;;;;;
2022/12/28 07:10:39;;;;;;;;;;;;;;;;;;;;;
2022/12/28 07:13:38;;;;;;;6.43;4.70;;;8.10;99.90;;;;;;5980750;24;20080;-87
2022/12/28 07:17:00;;;;;;;;;;;;;;;;;;;;;
2022/12/28 07:20:27;;;;;;;;;;;;;;;;;;;;;
2022/12/28 07:23:50;;;;;;;4.03;3.33;;;8.10;99.90;;;;;;6110643;23;20036;-88
2022/12/28 07:26:43;;;;;;;4.35;3.03;;;8.20;99.90;;;;;;6152908;23;20064;-87
2022/12/28 07:29:44;;;;;;;4.55;2.85;;;8.10;99.90;;;;;;6128469;23;20037;-88
2022/12/28 07:33:00;;;;;;;;;;;;;;;;;;;;;
2022/12/28 07:35:49;;;;;;;4.47;2.60;;;8.10;99.90;;;;;;6210140;22;20016;-90
2022/12/28 07:39:05;;;;;;;4.85;3.72;;;8.10;99.90;;;;;;6249580;22;20046;-85
2022/12/28 07:42:22;;;;;;;6.15;3.28;;;9.00;99.90;;;;;;6212962;23;20024;-88
2022/12/28 07:45:22;;;;;;;5.00;3.20;;;8.20;99.90;;;;;;6198796;23;20051;-88
2022/12/28 07:48:49;;;;;;;5.18;3.38;;;8.30;99.90;;;;;;6214258;23;20467;-89
2022/12/28 07:52:13;;;;;;;6.07;3.30;;;8.30;99.90;;;;;;6213050;23;20090;-86
2022/12/28 07:55:42;;;;;;;;;;;;;;;;;;;;;
2022/12/28 07:58:46;;;;;;;;;;;;;;;;;;;;;
2022/12/28 08:01:46;;;;;;;;;;;;;;;;;;;;;
2022/12/28 08:05:16;;;;;;;;;;;;;;;;;;;;;
2022/12/28 08:12:07;;;;;;;5.78;3.35;;;8.40;99.90;;;;;;6098756;23;20079;-87
2022/12/28 08:14:56;;;;;;;6.68;4.07;;;7.70;99.90;;;;;;6038099;23;20022;-88
2022/12/28 08:17:46;;;;;;;7.80;3.60;;;8.40;99.90;;;;;;6132046;23;20028;-93
2022/12/28 08:20:30;;;;;;;8.45;4.30;;;8.40;99.90;;;;;;6155277;23;20021;-93
2022/12/28 08:23:07;;;;;;;7.57;3.78;;;9.30;99.90;;;;;;6131104;23;20025;-93
2022/12/28 08:25:59;;;;;;;6.57;3.83;;;8.50;99.90;;;;;;6130060;23;20053;-94
2022/12/28 08:29:19;;;;;;;5.43;3.97;;;8.50;99.90;;;;;;6097508;23;20054;-95
2022/12/28 08:32:07;;;;;;;6.18;3.75;;;8.50;99.90;;;;;;6097909;23;20026;-92
2022/12/28 08:35:07;;;;;;;;;;;;;;;;;;;;;
2022/12/28 08:38:10;;;;;;;8.18;3.72;;;8.50;99.90;;;;;;6098338;23;20022;-95
2022/12/28 08:41:01;;;;;;;5.05;3.60;;;8.50;99.90;;;;;;6071784;23;20026;-95
2022/12/28 08:43:55;;;;;;;10.25;4.10;;;8.50;99.90;;;;;;6097366;23;20089;-95
2022/12/28 08:46:40;;;;;;;5.80;4.10;;;8.50;99.90;;;;;;6066364;23;20498;-95
2022/12/28 08:49:48;;;;;;;;;;;;;;;;;;;;;
2022/12/28 08:52:48;;;;;;;;;;;;;;;;;;;;;
2022/12/28 08:55:56;;;;;;;5.82;4.40;;;8.50;99.90;;;;;;6185926;23;20029;-91
2022/12/28 08:58:48;;;;;;;4.93;3.65;;;8.50;99.90;;;;;;6162555;22;20024;-95
2022/12/28 09:01:55;;;;;;;4.75;3.40;;;8.60;99.90;;;;;;6277789;22;20023;-92
2022/12/28 09:05:01;;;;;;;4.50;3.28;;;8.60;99.90;;;;;;6277762;22;20062;-90
2022/12/28 09:07:57;;;;;;;4.88;2.85;;;8.50;99.90;;;;;;6284798;22;20025;-88
2022/12/28 09:11:20;;;;;;;4.35;2.75;;;8.50;99.90;;;;;;6262800;22;20047;-94
2022/12/28 09:14:31;;;;;;;4.22;3.03;;;8.50;99.90;;;;;;6281058;22;20031;-94
2022/12/28 09:17:34;;;;;;;3.55;2.75;;;7.90;99.90;;;;;;6279091;22;20045;-93
2022/12/28 09:20:34;;;;;;;;;;;;;;;;;;;;;
2022/12/28 09:23:32;;;;;;;3.22;2.40;;;8.50;99.90;;;;;;6251492;22;20094;-93
2022/12/28 09:26:33;;;;;;;4.43;2.42;;;8.50;99.90;;;;;;6276042;22;20019;-93
2022/12/28 09:29:40;;;;;;;2.30;1.50;;;8.50;99.90;;;;;;6278982;22;20090;-91
2022/12/28 09:32:33;;;;;;;2.00;1.40;;;8.20;99.90;;;;;;6277919;22;20012;-94
2022/12/28 09:35:34;;;;;;;1.75;1.23;;;8.50;99.90;;;;;;6251937;22;20020;-92
2022/12/28 09:38:30;;;;;;;;;;;;;;;;;;;;;
2022/12/28 09:41:39;;;;;;;1.85;1.13;;;8.60;99.90;;;;;;6251724;22;20061;-94
2022/12/28 09:45:00;;;;;;;1.17;0.88;;;8.60;99.90;;;;;;6280900;22;20015;-91
2022/12/28 09:48:14;;;;;;;;;;;;;;;;;;;;;
2022/12/28 09:51:26;;;;;;;1.08;0.90;;;8.70;99.90;;;;;;6281643;22;20023;-93
2022/12/28 09:54:10;;;;;;;;;;;;;;;;;;;;;
2022/12/28 09:57:16;;;;;;;;;;;;;;;;;;;;;
2022/12/28 10:00:27;;;;;;;4.28;1.35;;;8.70;99.90;;;;;;6306140;22;20011;-92
2022/12/28 10:03:25;;;;;;;1.40;1.02;;;8.70;99.90;;;;;;6310557;22;20054;-93
2022/12/28 10:06:35;;;;;;;2.83;1.60;;;8.70;99.90;;;;;;6309041;22;20019;-92
2022/12/28 10:09:37;;;;;;;2.20;1.30;;;8.60;99.90;;;;;;6159496;23;20028;-91
2022/12/28 10:12:31;;;;;;;1.50;1.20;;;8.50;99.90;;;;;;6159389;23;20037;-92
2022/12/28 10:15:33;;;;;;;1.73;0.95;;;8.80;99.90;;;;;;6159574;23;20456;-91
2022/12/28 10:18:41;;;;;;;;;;;;;;;;;;;;;
2022/12/28 10:21:52;;;;;;;;;;;;;;;;;;;;;
2022/12/28 10:24:50;;;;;;;1.00;0.80;;;8.80;99.90;;;;;;6158078;23;20060;-94
2022/12/28 10:28:04;;;;;;;;;;;;;;;;;;;;;
2022/12/28 10:31:13;;;;;;;1.40;0.85;;;8.90;99.90;;;;;;6159234;23;20025;-85
2022/12/28 10:34:19;;;;;;;8.80;4.25;;;8.80;99.90;;;;;;6185343;23;20108;-88
2022/12/28 10:37:58;;;;;;;;;;;;;;;;;;;;;
2022/12/28 10:41:06;;;;;;;1.20;0.98;;;9.00;99.90;;;;;;6184505;23;20048;-88
2022/12/28 10:44:24;;;;;;;;;;;;;;;;;;;;;
2022/12/28 10:47:49;;;;;;;1.65;1.00;;;9.30;99.90;;;;;;6213190;23;20064;-86
2022/12/28 10:51:14;;;;;;;0.90;0.70;;;8.80;99.90;;;;;;6038367;23;20028;-91
2022/12/28 10:54:32;;;;;;;1.33;0.83;;;8.80;99.90;;;;;;6013006;23;20052;-89
2022/12/28 10:58:10;;;;;;;1.42;0.80;;;8.70;99.90;;;;;;6038543;23;20653;-93
2022/12/28 11:01:36;;;;;;;1.33;0.95;;;8.80;99.90;;;;;;5960643;23;20439;-88
2022/12/28 11:04:40;;;;;;;2.22;1.13;;;8.80;99.90;;;;;;6008492;23;20405;-91
2022/12/28 11:07:36;;;;;;;2.00;1.20;;;8.40;99.90;;;;;;6009210;23;20152;-88
2022/12/28 11:10:21;;;;;;;;;;;8.80;99.90;;;;;;5983826;23;20500;-89
2022/12/28 11:13:52;;;;;;;;;;;;;;;;;;;;;
2022/12/28 11:16:59;;;;;;;2.30;1.10;;;8.90;99.90;;;;;;6014406;23;20030;-89
2022/12/28 11:19:58;;;;;;;1.98;1.45;;;8.90;99.90;;;;;;6015836;23;20025;-91
2022/12/28 11:23:17;;;;;;;2.42;1.60;;;8.90;99.90;;;;;;6037249;23;20538;-87
2022/12/28 11:26:34;;;;;;;3.55;2.25;;;8.90;99.90;;;;;;6015753;23;20027;-91
2022/12/28 11:29:11;;;;;;;3.28;2.03;;;9.10;99.90;;;;;;6152041;23;20053;-89
2022/12/28 11:31:51;;;;;;;3.25;2.00;;;8.90;99.90;;;;;;6246073;22;20842;-88
2022/12/28 11:34:22;;;;;;;3.03;1.55;;;8.70;99.90;;;;;;6276801;22;20027;-91
2022/12/28 11:36:51;;;;;;;2.15;1.55;;;9.00;99.90;;;;;;6250101;22;20330;-89
2022/12/28 11:39:49;;;;;;;3.65;1.42;;;9.00;99.90;;;;;;6276954;22;20016;-90
2022/12/28 11:42:39;;;;;;;1.90;1.23;;;9.00;99.90;;;;;;6276975;22;20020;-88
2022/12/28 11:45:14;;;;;;;2.15;1.30;;;9.00;99.90;;;;;;6276820;22;20019;-91
2022/12/28 11:47:41;;;;;;;2.20;1.20;;;9.00;99.90;;;;;;6307870;22;20100;-90
2022/12/28 11:50:35;;;;;;;2.28;1.10;;;9.00;99.90;;;;;;6306884;22;20016;-92
2022/12/28 11:53:22;;;;;;;2.67;1.23;;;9.10;99.90;;;;;;6282513;22;20349;-89
2022/12/28 11:55:58;;;;;;;1.50;0.95;;;9.10;99.90;;;;;;6282773;22;20503;-92
2022/12/28 11:58:40;;;;;;;1.60;0.90;;;9.10;99.90;;;;;;6309460;22;20047;-87
2022/12/28 12:01:39;;;;;;;1.08;0.80;;;9.10;99.90;;;;;;6258676;22;20038;-89
2022/12/28 12:04:10;;;;;;;1.30;0.77;;;9.20;99.90;;;;;;6288051;22;20026;-90
2022/12/28 12:06:47;;;;;;;1.02;0.80;;;9.20;99.90;;;;;;6284045;22;20323;-88
2022/12/28 12:09:28;;;;;;;1.27;0.90;;;9.20;99.90;;;;;;6313807;22;20018;-90
2022/12/28 12:12:01;;;;;;;0.82;0.70;;;9.10;99.90;;;;;;6289841;22;20480;-89
2022/12/28 12:14:38;;;;;;;1.67;0.90;;;9.20;99.90;;;;;;6286050;22;20086;-91
2022/12/28 12:17:49;;;;;;;1.17;0.70;;;9.10;99.90;;;;;;6313656;22;20015;-91
2022/12/28 12:20:41;;;;;;;1.30;1.02;;;9.20;99.90;;;;;;6174593;23;20021;-89
2022/12/28 12:23:17;;;;;;;1.20;0.80;;;9.10;99.90;;;;;;6194266;23;20017;-88
2022/12/28 12:25:47;;;;;;;1.98;0.90;;;9.10;99.90;;;;;;6167880;23;20017;-90
2022/12/28 12:28:29;;;;;;;1.25;0.73;;;9.20;99.90;;;;;;6167895;23;20071;-88
2022/12/28 12:30:58;;;;;;;1.15;0.90;;;9.20;99.90;;;;;;6187824;23;20017;-90
2022/12/28 12:33:30;;;;;;;0.75;0.75;;;9.20;99.90;;;;;;6187819;23;20024;-87
2022/12/28 12:36:26;;;;;;;1.50;1.08;;;9.20;99.90;;;;;;6166316;23;20364;-88
2022/12/28 12:39:29;;;;;;;1.27;1.05;;;9.20;99.90;;;;;;6190914;23;20684;-89
2022/12/28 12:42:07;;;;;;;1.52;0.95;;;9.10;99.90;;;;;;6193466;23;20017;-90
2022/12/28 12:44:56;;;;;;;1.75;1.00;;;9.10;99.90;;;;;;6193242;23;20024;-93
2022/12/28 12:47:42;;;;;;;1.17;0.90;;;9.20;99.90;;;;;;6134158;23;20053;-90
2022/12/28 12:50:50;;;;;;;1.52;0.85;;;9.20;99.90;;;;;;6131735;23;20021;-92
2022/12/28 12:53:52;;;;;;;1.40;0.93;;;9.20;99.90;;;;;;6160406;23;20072;-88
2022/12/28 12:56:38;;;;;;;1.08;0.80;;;9.10;99.90;;;;;;6187367;22;20016;-88
2022/12/28 12:59:57;;;;;;;;;;;;;;;;;;;;;
2022/12/28 13:03:26;;;;;;;1.77;0.93;;;9.10;99.90;;;;;;6239923;22;20113;-90
2022/12/28 13:06:26;;;;;;;;;;;9.20;99.90;;;;;;6253646;22;20130;-93
2022/12/28 13:09:27;;;;;;;1.23;0.90;;;9.20;99.90;;;;;;6257576;22;20048;-91
2022/12/28 13:26:42;;;;;;;1.08;0.70;;;9.10;99.90;;;;;;6158543;23;20036;-92
2022/12/28 13:29:39;;;;;;;1.98;0.70;;;9.10;99.90;;;;;;6186695;23;20044;-93
2022/12/28 13:36:25;;;;;;;1.63;0.70;;;9.10;99.90;;;;;;6187315;23;20097;-87
2022/12/28 13:39:17;;;;;;;2.08;1.00;;;9.30;99.90;;;;;;6185547;23;20113;-88
2022/12/28 13:42:07;;;;;;;1.13;0.80;;;9.00;99.90;;;;;;6159967;23;20530;-90
2022/12/28 13:44:54;;;;;;;;;;;;;;;;;;;;;
2022/12/28 13:47:47;;;;;;;1.42;1.02;;;9.20;99.90;;;;;;6185091;23;19916;-88
2022/12/28 13:50:52;;;;;;;1.95;0.80;;;9.10;99.90;;;;;;6313596;22;20077;-87
2022/12/28 13:53:58;;;;;;;;;;;;;;;;;;;;;
2022/12/28 13:56:55;;;;;;;;;;;;;;;;;;;;;
2022/12/28 13:59:50;;;;;;;2.17;0.88;;;9.10;99.90;;;;;;6281004;22;20019;-89
2022/12/28 14:02:45;;;;;;;2.03;1.08;;;8.90;99.90;;;;;;6280713;22;20074;-86
2022/12/28 14:05:54;;;;;;;;;;;;;;;;;;;;;
2022/12/28 14:08:50;;;;;;;1.08;0.80;;;9.10;99.90;;;;;;6283224;22;20011;-89
2022/12/28 14:15:50;;;;;;;;;;;;;;;;;;;;;
2022/12/28 14:18:45;;;;;;;;;;;;;;;;;;;;;
2022/12/28 14:22:14;;;;;;;0.93;0.70;;;9.10;99.90;;;;;;6216503;23;20035;-89
2022/12/28 14:25:13;;;;;;;3.10;0.90;;;9.00;99.90;;;;;;6166029;23;20028;-88
2022/12/28 14:28:16;;;;;;;1.02;0.63;;;9.00;99.90;;;;;;6221416;23;20021;-90
2022/12/28 14:31:23;;;;;;;;;;;;;;;;;;;;;
2022/12/28 14:34:06;;;;;;;3.83;0.88;;;8.90;99.90;;;;;;6188070;23;20072;-90
2022/12/28 14:36:51;;;;;;;1.17;0.60;;;8.80;99.90;;;;;;6112411;23;20017;-89
2022/12/28 14:39:35;;;;;;;1.30;0.80;;;8.80;99.90;;;;;;6159391;23;20115;-88
2022/12/28 14:42:34;;;;;;;3.35;0.70;;;8.80;99.90;;;;;;6183914;23;20017;-92
2022/12/28 14:46:23;;;;;;;;;;;;;;;;;;;;;
2022/12/28 14:49:33;;;;;;;1.92;0.90;;;8.70;99.90;;;;;;6185560;23;20126;-90
2022/12/28 14:52:12;;;;;;;4.15;1.25;;;8.50;99.90;;;;;;6189771;23;20071;-88
2022/12/28 14:54:47;;;;;;;1.90;0.85;;;8.70;99.90;;;;;;6163243;23;20328;-93
2022/12/28 14:57:38;;;;;;;3.45;1.02;;;8.70;99.90;;;;;;6186985;23;20016;-95
2022/12/28 15:00:30;;;;;;;6.60;1.10;;;8.70;99.90;;;;;;6164303;23;20383;-90
2022/12/28 15:03:13;;;;;;;2.35;0.73;;;8.80;99.90;;;;;;6189221;23;20021;-93
2022/12/28 15:05:50;;;;;;;3.30;1.13;;;8.70;99.90;;;;;;6161814;23;20312;-90
2022/12/28 15:08:17;;;;;;;2.53;1.27;;;8.70;99.90;;;;;;6216875;23;20021;-89
2022/12/28 15:11:08;;;;;;;4.15;1.30;;;8.80;99.90;;;;;;6190680;23;20024;-87
2022/12/28 15:13:40;;;;;;;5.00;1.30;;;8.70;99.90;;;;;;6218753;23;20023;-89
2022/12/28 15:16:10;;;;;;;5.50;1.55;;;8.70;99.90;;;;;;6190664;23;20016;-86
2022/12/28 15:18:51;;;;;;;2.25;1.40;;;8.70;99.90;;;;;;6191516;23;20474;-91
2022/12/28 15:21:25;;;;;;;3.67;1.70;;;8.70;99.90;;;;;;6246598;23;20031;-87
2022/12/28 15:23:58;;;;;;;2.85;1.45;;;8.70;99.90;;;;;;6220063;23;20020;-90
2022/12/28 15:26:30;;;;;;;2.42;1.30;;;8.20;99.90;;;;;;6218902;23;20028;-90
2022/12/28 15:29:06;;;;;;;4.32;1.77;;;8.70;99.90;;;;;;6221579;23;20016;-93
2022/12/28 15:31:44;;;;;;;6.88;2.20;;;8.70;99.90;;;;;;6247259;23;20023;-93
2022/12/28 15:34:20;;;;;;;5.82;2.08;;;8.80;99.90;;;;;;6246707;23;20019;-92
2022/12/28 15:36:48;;;;;;;5.10;1.90;;;8.80;99.90;;;;;;6219521;23;20020;-89
2022/12/28 15:39:18;;;;;;;4.07;2.15;;;8.70;99.90;;;;;;6220405;23;20347;-87
2022/12/28 15:41:48;;;;;;;2.65;1.70;;;8.80;99.90;;;;;;6220654;23;20024;-89
2022/12/28 15:44:19;;;;;;;7.43;2.30;;;8.80;99.90;;;;;;6222086;23;20043;-90
2022/12/28 15:46:52;;;;;;;4.50;2.42;;;8.80;99.90;;;;;;6251971;23;20078;-89
2022/12/28 15:49:39;;;;;;;7.70;2.75;;;8.80;99.90;;;;;;6223424;23;20370;-91
2022/12/28 15:52:46;;;;;;;4.43;2.08;;;8.80;99.90;;;;;;6223414;23;20052;-95
2022/12/28 15:55:15;;;;;;;3.70;2.10;;;8.80;99.90;;;;;;6128448;23;20047;-89
2022/12/28 15:57:41;;;;;;;4.18;1.92;;;8.80;99.90;;;;;;6129822;23;20052;-91
2022/12/28 16:00:09;;;;;;;4.82;2.58;;;8.80;99.90;;;;;;6129940;23;20064;-89
2022/12/28 16:02:35;;;;;;;5.13;2.00;;;8.60;99.90;;;;;;6154162;23;20025;-91
2022/12/28 16:05:11;;;;;;;3.03;1.75;;;8.80;99.90;;;;;;6154453;23;20092;-86
2022/12/28 16:07:38;;;;;;;2.95;2.28;;;8.50;99.90;;;;;;6129357;23;20032;-88
2022/12/28 16:10:07;;;;;;;5.65;2.80;;;8.70;99.90;;;;;;6153748;23;20033;-91
2022/12/28 16:12:33;;;;;;;3.63;2.00;;;8.80;99.90;;;;;;6131994;23;20096;-87
2022/12/28 16:15:07;;;;;;;3.72;2.40;;;8.80;99.90;;;;;;6155084;23;20020;-88
2022/12/28 16:17:41;;;;;;;5.88;2.10;;;8.70;99.90;;;;;;6132494;23;20032;-90
2022/12/28 16:20:13;;;;;;;5.22;2.40;;;8.70;99.90;;;;;;6156336;23;20025;-92
2022/12/28 16:22:43;;;;;;;7.57;2.42;;;8.70;99.90;;;;;;6130446;23;20064;-92
2022/12/28 16:25:18;;;;;;;7.65;2.20;;;8.50;99.90;;;;;;6130326;23;20018;-93
2022/12/28 16:27:44;;;;;;;5.03;2.00;;;8.70;99.90;;;;;;6157486;23;20449;-92
2022/12/28 16:30:14;;;;;;;2.42;1.88;;;8.60;99.90;;;;;;6105413;23;20408;-93
2022/12/28 16:32:42;;;;;;;5.35;2.15;;;8.60;99.90;;;;;;6199417;23;20035;-93
2022/12/28 16:35:28;;;;;;;4.97;2.30;;;8.60;99.90;;;;;;6227166;23;20020;-90
2022/12/28 16:37:55;;;;;;;11.55;2.58;;;8.70;99.90;;;;;;6197807;23;20114;-94
2022/12/28 16:41:12;;;;;;;;;;;;;;;;;;;;;
2022/12/28 16:44:50;;;;;;;4.10;2.15;;;8.70;99.90;;;;;;6252097;23;20532;-89
2022/12/28 16:48:19;;;;;;;3.65;1.60;;;8.70;99.90;;;;;;6158258;23;20029;-89
2022/12/28 16:52:05;;;;;;;;;;;;;;;;;;;;;
2022/12/28 16:55:42;;;;;;;;;;;;;;;;;;;;;
2022/12/28 16:58:54;;;;;;;;;;;;;;;;;;;;;
2022/12/28 17:02:36;;;;;;;4.60;1.85;;;8.60;99.90;;;;;;6010546;23;20099;-88
2022/12/28 17:05:35;;;;;;;3.20;1.70;;;8.60;99.90;;;;;;5931143;24;20027;-87
2022/12/28 17:09:02;;;;;;;;;;;;;;;;;;;;;
2022/12/28 17:11:56;;;;;;;3.22;2.13;;;8.60;99.90;;;;;;5930842;24;20079;-88
2022/12/28 17:18:54;;;;;;;;;;;;;;;;;;;;;
2022/12/28 17:22:51;;;;;;;;;;;;;;;;;;;;;
2022/12/28 17:40:23;;;;;;;;;;;;;;;;;;;;;
2022/12/28 17:43:42;;;;;;;4.45;1.55;;;8.60;99.90;;;;;;6278127;22;20481;-92
2022/12/28 17:47:08;;;;;;;;;;;;;;;;;;;;;
2022/12/28 17:50:22;;;;;;;;;;;;;;;;;;;;;
2022/12/28 17:53:52;;;;;;;;;;;;;;;;;;;;;
2022/12/28 17:57:24;;;;;;;;;;;;;;;;;;;;;
2022/12/28 18:00:54;;;;;;;;;;;;;;;;;;;;;
2022/12/28 18:04:09;;;;;;;3.63;1.53;;;8.50;99.90;;;;;;6183809;23;20025;-89
2022/12/28 18:07:40;;;;;;;;;;;;;;;;;;;;;
2022/12/28 18:10:52;;;;;;;;;;;;;;;;;;;;;
2022/12/28 18:14:24;;;;;;;;;;;;;;;;;;;;;
2022/12/28 18:17:46;;;;;;;;;;;8.40;99.90;;;;;;6225391;22;20027;-87
2022/12/28 18:21:28;;;;;;;;;;;;;;;;;;;;;
2022/12/28 18:25:00;;;;;;;;;;;;;;;;;;;;;
2022/12/28 18:28:18;;;;;;;;;;;;;;;;;;;;;
2022/12/28 18:31:56;;;;;;;;;;;;;;;;;;;;;
2022/12/28 18:38:48;;;;;;;3.13;1.38;;;8.30;99.90;;;;;;6284100;22;20327;-86
2022/12/28 18:42:18;;;;;;;;;;;;;;;;;;;;;
2022/12/28 18:45:34;;;;;;;4.80;1.50;;;8.30;99.90;;;;;;6277524;22;20023;-87
2022/12/28 18:48:55;;;;;;;2.13;1.27;;;8.40;99.90;;;;;;6308256;22;20024;-88
2022/12/28 18:52:36;;;;;;;;;;;;;;;;;;;;;
2022/12/28 18:56:02;;;;;;;;;;;;;;;;;;;;;
2022/12/28 18:59:30;;;;;;;5.45;1.67;;;8.40;99.90;;;;;;6094783;23;20093;-88
2022/12/28 19:02:46;;;;;;;5.57;1.50;;;8.10;99.90;;;;;;6037100;23;20082;-88
2022/12/28 19:05:59;;;;;;;4.03;1.70;;;8.40;99.90;;;;;;6037408;23;20027;-88
2022/12/28 19:08:42;;;;;;;2.42;1.52;;;8.40;99.90;;;;;;5989836;23;20107;-89
2022/12/28 19:12:06;;;;;;;;;;;;;;;;;;;;;
2022/12/28 19:15:24;;;;;;;;;;;;;;;;;;;;;
2022/12/28 19:18:37;;;;;;;3.85;1.63;;;8.40;99.90;;;;;;5980460;24;20027;-88
2022/12/28 19:22:15;;;;;;;;;;;;;;;;;;;;;
2022/12/28 19:25:38;;;;;;;3.30;1.52;;;8.30;99.90;;;;;;6041859;23;20362;-88
2022/12/28 19:28:40;;;;;;;4.72;1.63;;;8.30;99.90;;;;;;6040231;23;20381;-89
2022/12/28 19:31:43;;;;;;;1.90;1.30;;;8.40;99.90;;;;;;6127575;23;20080;-89
2022/12/28 19:34:54;;;;;;;;;;;;;;;;;;;;;
2022/12/28 19:38:19;;;;;;;2.78;1.35;;;8.30;99.90;;;;;;6182857;23;20025;-89
2022/12/28 19:41:38;;;;;;;;;;;;;;;;;;;;;
2022/12/28 19:52:34;;;;;;;2.20;1.20;;;8.40;99.90;;;;;;6065199;23;20062;-90
2022/12/28 19:58:51;;;;;;;2.50;1.42;;;8.70;99.90;;;;;;5952355;24;20039;-88
2022/12/28 20:02:05;;;;;;;;;;;;;;;;;;;;;
2022/12/28 20:05:09;;;;;;;3.28;1.63;;;8.50;99.90;;;;;;5927904;24;20021;-89
2022/12/28 20:08:36;;;;;;;2.20;1.20;;;8.50;99.90;;;;;;5946639;23;20157;-89
2022/12/28 20:11:44;;;;;;;1.75;1.40;;;8.70;99.90;;;;;;5952221;24;20394;-89
2022/12/28 20:15:15;;;;;;;3.08;1.40;;;9.10;99.90;;;;;;5954278;24;20025;-89
2022/12/28 20:18:36;;;;;;;;;;;;;;;;;;;;;
2022/12/28 20:21:36;;;;;;;2.00;1.25;;;8.60;99.90;;;;;;5939635;24;20005;-88
2022/12/28 20:25:12;;;;;;;2.25;1.00;;;9.20;99.90;;;;;;5954444;23;20095;-86
2022/12/28 20:28:34;;;;;;;;;;;;;;;;;;;;;
2022/12/28 20:31:13;;;;;;;2.10;1.42;;;8.60;99.90;;;;;;5981678;24;20028;-87
2022/12/28 20:34:40;;;;;;;;;;;;;;;;;;;;;
2022/12/28 20:38:13;;;;;;;;;;;;;;;;;;;;;
2022/12/28 20:44:42;;;;;;;3.42;1.00;;;8.70;99.90;;;;;;6043511;23;20023;-88
2022/12/28 20:48:10;;;;;;;;;;;;;;;;;;;;;
2022/12/28 20:51:48;;;;;;;;;;;;;;;;;;;;;
2022/12/28 20:57:41;;;;;;;2.47;1.30;;;8.90;99.90;;;;;;6241840;22;20038;-86
2022/12/28 21:01:04;;;;;;;;;;;;;;;;;;;;;
2022/12/28 21:04:28;;;;;;;;;;;;;;;;;;;;;
2022/12/28 21:07:54;;;;;;;1.77;1.10;;;8.90;99.90;;;;;;6154463;23;20098;-86
2022/12/28 21:11:19;;;;;;;;;;;;;;;;;;;;;
2022/12/28 21:14:34;;;;;;;;;;;;;;;;;;;;;
2022/12/28 21:18:02;;;;;;;;;;;;;;;;;;;;;
2022/12/28 21:21:01;;;;;;;1.95;1.15;;;9.00;99.90;;;;;;6172754;22;20011;-87
2022/12/28 21:23:32;;;;;;;1.65;1.17;;;9.10;99.90;;;;;;6219462;23;20023;-86
2022/12/28 21:26:04;;;;;;;3.15;1.35;;;9.10;99.90;;;;;;6246565;23;20074;-87
2022/12/28 21:28:34;;;;;;;3.47;1.38;;;9.20;99.90;;;;;;6219711;23;20035;-88
2022/12/28 21:31:03;;;;;;;2.55;1.30;;;9.70;99.90;;;;;;6246618;23;20027;-88
2022/12/28 21:33:31;;;;;;;3.30;2.00;;;9.20;99.90;;;;;;6219260;23;20020;-87
2022/12/28 21:36:12;;;;;;;2.30;1.50;;;9.20;99.90;;;;;;6220040;23;20016;-88
2022/12/28 21:38:56;;;;;;;;;;;;;;;;;;;;;
2022/12/28 21:44:12;;;;;;;4.03;2.38;;;9.40;99.90;;;;;;6220381;23;20028;-86
2022/12/28 21:46:41;;;;;;;3.67;1.85;;;9.40;99.90;;;;;;6246883;23;20020;-87
2022/12/28 21:49:08;;;;;;;3.92;1.75;;;9.40;99.90;;;;;;6247230;23;20016;-87
2022/12/28 21:51:37;;;;;;;4.65;2.53;;;9.40;99.90;;;;;;6219635;23;20078;-88
2022/12/28 21:54:16;;;;;;;3.53;2.40;;;9.40;99.90;;;;;;6245843;23;20016;-87
2022/12/28 21:56:53;;;;;;;3.63;2.47;;;9.40;99.90;;;;;;6247264;23;20039;-86
2022/12/28 21:59:24;;;;;;;4.55;2.75;;;9.50;99.90;;;;;;6220361;23;20020;-87
2022/12/28 22:15:56;;;;;;;3.67;3.00;;;9.60;99.90;;;;;;6246526;23;20027;-89
2022/12/28 22:19:06;;;;;;;;;;;;;;;;;;;;;
2022/12/28 22:22:24;;;;;;;;;;;;;;;;;;;;;
2022/12/28 22:25:50;;;;;;;7.05;2.53;;;9.60;99.90;;;;;;6247339;23;20121;-89
2022/12/28 22:29:17;;;;;;;;;;;;;;;;;;;;;
2022/12/28 22:32:30;;;;;;;3.97;2.70;;;9.70;99.90;;;;;;6219090;23;20050;-88
2022/12/28 22:35:54;;;;;;;;;;;;;;;;;;;;;
2022/12/28 22:38:54;;;;;;;;;;;;;;;;;;;;;
2022/12/28 22:42:14;;;;;;;;;;;;;;;;;;;;;
2022/12/28 22:45:43;;;;;;;;;;;;;;;;;;;;;
2022/12/28 22:48:56;;;;;;;3.63;2.75;;;9.80;99.90;;;;;;6139038;23;20024;-88
2022/12/28 22:52:20;;;;;;;;;;;;;;;;;;;;;
2022/12/28 22:55:40;;;;;;;6.03;3.23;;;9.70;99.90;;;;;;6214059;23;20454;-88
2022/12/28 22:58:10;;;;;;;4.13;2.95;;;9.90;99.90;;;;;;6188434;23;20044;-87
2022/12/28 23:01:12;;;;;;;6.63;3.05;;;9.90;99.90;;;;;;6188435;23;20031;-89
2022/12/28 23:04:12;;;;;;;;;;;;;;;;;;;;;
2022/12/28 23:07:34;;;;;;;3.10;2.40;;;9.90;99.90;;;;;;6246645;23;20093;-88
2022/12/28 23:28:48;;;;;;;3.97;2.92;;;9.90;99.90;;;;;;6246312;23;20355;-88
2022/12/28 23:32:26;;;;;;;;;;;;;;;;;;;;;
2022/12/28 23:35:54;;;;;;;;;;;;;;;;;;;;;
2022/12/28 23:39:26;;;;;;;;;;;;;;;;;;;;;
2022/12/28 23:42:56;;;;;;;;;;;;;;;;;;;;;
2022/12/28 23:46:24;;;;;;;3.30;2.30;;;10.00;99.90;;;;;;6246614;23;20020;-86
2022/12/28 23:49:37;;;;;;;6.10;3.05;;;10.00;99.90;;;;;;6248307;23;20023;-87
2022/12/28 23:52:27;;;;;;;3.33;2.45;;;10.00;99.90;;;;;;6248334;23;20336;-88
2022/12/28 23:55:32;;;;;;;;;;;;;;;;;;;;;
2022/12/28 23:58:46;;;;;;;;;;;;;;;;;;;;;
